createdAt,value
2017-11-04T00:01:35.944Z,100754
2017-11-04T00:04:04.880Z,100767
2017-11-04T00:06:33.853Z,100770
2017-11-04T00:09:03.764Z,100763
2017-11-04T00:11:34.270Z,100769
2017-11-04T00:14:03.754Z,100759
2017-11-04T00:16:35.173Z,100761
2017-11-04T00:19:03.573Z,100756
2017-11-04T00:21:32.672Z,100759
2017-11-04T00:24:01.360Z,100753
2017-11-04T00:26:31.579Z,100754
2017-11-04T00:29:01.553Z,100755
2017-11-04T00:31:30.002Z,100755
2017-11-04T00:33:58.692Z,100754
2017-11-04T00:36:27.741Z,100758
2017-11-04T00:38:56.953Z,100746
2017-11-04T00:41:27.686Z,100747
2017-11-04T00:43:57.372Z,100744
2017-11-04T00:46:26.305Z,100749
2017-11-04T00:48:55.520Z,100743
2017-11-04T00:51:24.396Z,100746
2017-11-04T00:53:53.692Z,100742
2017-11-04T00:56:23.443Z,100741
2017-11-04T00:58:53.224Z,100736
2017-11-04T01:01:22.313Z,100726
2017-11-04T01:03:51.663Z,100719
2017-11-04T01:06:20.233Z,100722
2017-11-04T01:08:50.526Z,100721
2017-11-04T01:11:19.994Z,100720
2017-11-04T01:13:48.695Z,100708
2017-11-04T01:16:17.550Z,100696
2017-11-04T01:18:46.875Z,100713
2017-11-04T01:21:19.039Z,100717
2017-11-04T01:23:48.467Z,100714
2017-11-04T01:26:17.305Z,100720
2017-11-04T01:28:46.688Z,100706
2017-11-04T01:31:16.225Z,100723
2017-11-04T01:33:47.623Z,100704
2017-11-04T01:36:17.393Z,100701
2017-11-04T01:38:47.556Z,100699
2017-11-04T01:41:16.532Z,100703
2017-11-04T01:43:46.176Z,100701
2017-11-04T01:46:15.584Z,100693
2017-11-04T01:48:45.018Z,100695
2017-11-04T01:51:13.655Z,100687
2017-11-04T01:53:40.839Z,100684
2017-11-04T01:56:12.462Z,100695
2017-11-04T01:58:41.980Z,100679
2017-11-04T02:01:11.059Z,100678
2017-11-04T02:03:40.420Z,100686
2017-11-04T02:06:10.181Z,100674
2017-11-04T02:08:40.944Z,100676
2017-11-04T02:11:09.737Z,100680
2017-11-04T02:13:38.480Z,100674
2017-11-04T02:16:06.847Z,100674
2017-11-04T02:18:39.744Z,100671
2017-11-04T02:21:08.174Z,100676
2017-11-04T02:23:41.316Z,100669
2017-11-04T02:26:10.479Z,100659
2017-11-04T02:28:39.463Z,100672
2017-11-04T02:31:09.031Z,100654
2017-11-04T02:33:38.264Z,100667
2017-11-04T02:36:07.132Z,100658
2017-11-04T02:38:36.796Z,100653
2017-11-04T02:41:06.544Z,100646
2017-11-04T02:43:34.824Z,100652
2017-11-04T02:46:04.624Z,100641
2017-11-04T02:48:33.504Z,100636
2017-11-04T02:51:02.548Z,100637
2017-11-04T02:53:30.848Z,100629
2017-11-04T02:56:00.403Z,100633
2017-11-04T02:58:29.850Z,100622
2017-11-04T03:00:58.452Z,100632
2017-11-04T03:03:35.248Z,100627
2017-11-04T03:06:05.467Z,100631
2017-11-04T03:08:38.215Z,100615
2017-11-04T03:11:08.524Z,100616
2017-11-04T03:13:38.249Z,100617
2017-11-04T03:16:07.608Z,100620
2017-11-04T03:18:35.936Z,100601
2017-11-04T03:21:05.642Z,100605
2017-11-04T03:23:37.984Z,100604
2017-11-04T03:26:07.424Z,100603
2017-11-04T03:28:38.293Z,100594
2017-11-04T03:31:08.557Z,100604
2017-11-04T03:33:39.996Z,100599
2017-11-04T03:36:09.699Z,100594
2017-11-04T03:38:38.954Z,100588
2017-11-04T03:41:08.772Z,100590
2017-11-04T03:43:38.048Z,100596
2017-11-04T03:46:07.796Z,100583
2017-11-04T03:48:37.751Z,100586
2017-11-04T03:51:06.696Z,100576
2017-11-04T03:53:36.350Z,100576
2017-11-04T03:56:06.693Z,100571
2017-11-04T03:58:37.508Z,100578
2017-11-04T04:01:07.341Z,100579
2017-11-04T04:03:36.280Z,100571
2017-11-04T04:06:05.968Z,100580
2017-11-04T04:08:34.656Z,100572
2017-11-04T04:11:03.195Z,100579
2017-11-04T04:13:31.819Z,100566
2017-11-04T04:16:00.760Z,100573
2017-11-04T04:18:29.700Z,100564
2017-11-04T04:20:59.205Z,100567
2017-11-04T04:23:29.321Z,100525
2017-11-04T04:25:58.433Z,100559
2017-11-04T04:28:27.980Z,100557
2017-11-04T04:30:57.556Z,100561
2017-11-04T04:33:26.604Z,100564
2017-11-04T04:35:56.219Z,100551
2017-11-04T04:38:25.443Z,100558
2017-11-04T04:41:01.464Z,100561
2017-11-04T04:43:32.128Z,100552
2017-11-04T04:46:07.007Z,100537
2017-11-04T04:48:35.783Z,100542
2017-11-04T04:51:04.177Z,100546
2017-11-04T04:53:37.829Z,100543
2017-11-04T04:56:07.487Z,100545
2017-11-04T04:58:39.121Z,100540
2017-11-04T05:01:10.625Z,100538
2017-11-04T05:03:45.004Z,100541
2017-11-04T05:06:13.693Z,100544
2017-11-04T05:08:42.684Z,100534
2017-11-04T05:11:12.537Z,100529
2017-11-04T05:13:42.310Z,100532
2017-11-04T05:16:14.626Z,100528
2017-11-04T05:18:43.062Z,100533
2017-11-04T05:21:11.356Z,100527
2017-11-04T05:23:42.145Z,100521
2017-11-04T05:26:10.450Z,100516
2017-11-04T05:28:38.832Z,100510
2017-11-04T05:31:07.437Z,100515
2017-11-04T05:33:36.611Z,100508
2017-11-04T05:36:07.947Z,100505
2017-11-04T05:38:37.363Z,100515
2017-11-04T05:41:06.706Z,100510
2017-11-04T05:43:40.465Z,100510
2017-11-04T05:46:10.045Z,100510
2017-11-04T05:48:42.168Z,100515
2017-11-04T05:51:12.292Z,100513
2017-11-04T05:53:45.400Z,100506
2017-11-04T05:56:14.822Z,100510
2017-11-04T05:58:45.484Z,100506
2017-11-04T06:01:18.628Z,100500
2017-11-04T06:03:47.504Z,100509
2017-11-04T06:06:17.144Z,100501
2017-11-04T06:08:47.645Z,100494
2017-11-04T06:11:15.956Z,100500
2017-11-04T06:13:45.072Z,100502
2017-11-04T06:16:14.095Z,100501
2017-11-04T06:18:43.471Z,100509
2017-11-04T06:21:12.536Z,100502
2017-11-04T06:23:42.459Z,100506
2017-11-04T06:26:11.845Z,100502
2017-11-04T06:28:40.852Z,100499
2017-11-04T06:31:10.980Z,100500
2017-11-04T06:33:40.335Z,100505
2017-11-04T06:36:09.224Z,100495
2017-11-04T06:38:37.808Z,100508
2017-11-04T06:41:07.752Z,100502
2017-11-04T06:43:38.141Z,100504
2017-11-04T06:46:06.476Z,100500
2017-11-04T06:48:37.608Z,100487
2017-11-04T06:51:07.735Z,100522
2017-11-04T06:53:36.321Z,100521
2017-11-04T06:56:05.477Z,100511
2017-11-04T06:58:34.400Z,100521
2017-11-04T07:01:03.340Z,100509
2017-11-04T07:03:33.073Z,100507
2017-11-04T07:06:01.930Z,100504
2017-11-04T07:08:30.240Z,100510
2017-11-04T07:10:58.887Z,100497
2017-11-04T07:13:28.159Z,100502
2017-11-04T07:15:57.630Z,100507
2017-11-04T07:18:27.995Z,100499
2017-11-04T07:20:57.232Z,100493
2017-11-04T07:23:26.362Z,100501
2017-11-04T07:25:54.716Z,100502
2017-11-04T07:28:24.778Z,100489
2017-11-04T07:30:54.673Z,100503
2017-11-04T07:33:25.087Z,100489
2017-11-04T07:35:54.045Z,100487
2017-11-04T07:38:27.416Z,100489
2017-11-04T07:40:56.761Z,100488
2017-11-04T07:43:25.364Z,100494
2017-11-04T07:45:54.783Z,100480
2017-11-04T07:48:26.485Z,100489
2017-11-04T07:50:55.162Z,100482
2017-11-04T07:53:24.729Z,100488
2017-11-04T07:55:53.455Z,100483
2017-11-04T07:58:22.456Z,100483
2017-11-04T08:00:51.660Z,100476
2017-11-04T08:03:21.624Z,100483
2017-11-04T08:05:50.840Z,100480
2017-11-04T08:08:19.176Z,100476
2017-11-04T08:10:48.271Z,100462
2017-11-04T08:13:17.265Z,100467
2017-11-04T08:15:46.102Z,100449
2017-11-04T08:18:15.552Z,100453
2017-11-04T08:20:45.227Z,100462
2017-11-04T08:23:14.556Z,100450
2017-11-04T08:25:44.257Z,100457
2017-11-04T08:28:17.386Z,100456
2017-11-04T08:30:45.748Z,100455
2017-11-04T08:33:15.928Z,100456
2017-11-04T08:35:45.056Z,100456
2017-11-04T08:38:14.988Z,100462
2017-11-04T08:40:44.672Z,100452
2017-11-04T08:43:21.302Z,100443
2017-11-04T08:45:51.734Z,100451
2017-11-04T08:48:20.198Z,100450
2017-11-04T08:50:48.910Z,100449
2017-11-04T08:53:17.305Z,100435
2017-11-04T08:55:46.035Z,100451
2017-11-04T08:58:15.764Z,100438
2017-11-04T09:00:46.097Z,100438
2017-11-04T09:03:14.909Z,100435
2017-11-04T09:05:48.016Z,100439
2017-11-04T09:08:17.421Z,100430
2017-11-04T09:10:51.276Z,100416
2017-11-04T09:13:19.808Z,100418
2017-11-04T09:15:53.575Z,100407
2017-11-04T09:18:22.200Z,100408
2017-11-04T09:20:51.620Z,100402
2017-11-04T09:23:27.211Z,100396
2017-11-04T09:25:56.910Z,100416
2017-11-04T09:28:26.588Z,100417
2017-11-04T09:30:55.200Z,100411
2017-11-04T09:33:24.548Z,100407
2017-11-04T09:35:52.849Z,100406
2017-11-04T09:38:21.508Z,100415
2017-11-04T09:40:51.543Z,100406
2017-11-04T09:43:21.562Z,100389
2017-11-04T09:45:51.531Z,100387
2017-11-04T09:48:20.340Z,100384
2017-11-04T09:50:50.280Z,100386
2017-11-04T09:53:22.432Z,100386
2017-11-04T09:55:50.773Z,100386
2017-11-04T09:58:20.113Z,100378
2017-11-04T10:00:49.601Z,100361
2017-11-04T10:03:20.239Z,100369
2017-11-04T10:05:49.758Z,100367
2017-11-04T10:08:21.508Z,100365
2017-11-04T10:10:50.452Z,100366
2017-11-04T10:13:21.609Z,100358
2017-11-04T10:15:49.961Z,100350
2017-11-04T10:18:19.028Z,100350
2017-11-04T10:20:52.921Z,100350
2017-11-04T10:23:25.016Z,100349
2017-11-04T10:25:55.452Z,100343
2017-11-04T10:28:25.968Z,100347
2017-11-04T10:30:54.896Z,100347
2017-11-04T10:33:24.447Z,100325
2017-11-04T10:35:53.647Z,100323
2017-11-04T10:38:28.187Z,100317
2017-11-04T10:40:58.444Z,100309
2017-11-04T10:43:28.002Z,100304
2017-11-04T10:45:57.098Z,100281
2017-11-04T10:48:28.824Z,100302
2017-11-04T10:50:57.869Z,100296
2017-11-04T10:53:27.200Z,100297
2017-11-04T10:55:57.200Z,100287
2017-11-04T10:58:26.176Z,100285
2017-11-04T11:00:56.601Z,100277
2017-11-04T11:03:25.387Z,100261
2017-11-04T11:05:55.297Z,100265
2017-11-04T11:08:23.630Z,100265
2017-11-04T11:10:52.378Z,100257
2017-11-04T11:13:21.218Z,100254
2017-11-04T11:15:51.375Z,100257
2017-11-04T11:18:23.405Z,100260
2017-11-04T11:20:52.464Z,100255
2017-11-04T11:23:21.812Z,100254
2017-11-04T11:25:51.777Z,100251
2017-11-04T11:28:21.460Z,100251
2017-11-04T11:30:50.924Z,100243
2017-11-04T11:33:22.795Z,100242
2017-11-04T11:35:52.266Z,100237
2017-11-04T11:38:24.115Z,100234
2017-11-04T11:40:54.136Z,100244
2017-11-04T11:43:24.829Z,100239
2017-11-04T11:45:55.315Z,100238
2017-11-04T11:48:25.744Z,100233
2017-11-04T11:50:58.733Z,100226
2017-11-04T11:53:29.050Z,100222
2017-11-04T11:55:58.384Z,100215
2017-11-04T11:58:27.428Z,100208
2017-11-04T12:00:57.529Z,100207
2017-11-04T12:03:28.396Z,100204
2017-11-04T12:06:00.896Z,100196
2017-11-04T12:08:29.300Z,100190
2017-11-04T12:10:59.585Z,100183
2017-11-04T12:13:28.243Z,100187
2017-11-04T12:15:58.840Z,100183
2017-11-04T12:18:28.264Z,100177
2017-11-04T12:20:57.723Z,100170
2017-11-04T12:23:31.816Z,100167
2017-11-04T12:26:01.818Z,100155
2017-11-04T12:28:30.657Z,100156
2017-11-04T12:31:01.104Z,100151
2017-11-04T12:33:32.018Z,100153
2017-11-04T12:36:01.162Z,100147
2017-11-04T12:38:30.764Z,100147
2017-11-04T12:41:01.258Z,100136
2017-11-04T12:43:30.459Z,100142
2017-11-04T12:46:01.992Z,100138
2017-11-04T12:48:31.316Z,100144
2017-11-04T12:51:01.060Z,100141
2017-11-04T12:53:30.669Z,100129
2017-11-04T12:56:00.684Z,100140
2017-11-04T12:58:31.274Z,100120
2017-11-04T13:01:00.211Z,100115
2017-11-04T13:03:30.328Z,100123
2017-11-04T13:05:58.900Z,100116
2017-11-04T13:08:28.022Z,100113
2017-11-04T13:10:56.962Z,100114
2017-11-04T13:13:26.552Z,100108
2017-11-04T13:15:55.565Z,100107
2017-11-04T13:18:24.771Z,100110
2017-11-04T13:20:53.124Z,100100
2017-11-04T13:23:23.130Z,100101
2017-11-04T13:25:52.666Z,100103
2017-11-04T13:28:22.222Z,100103
2017-11-04T13:30:50.529Z,100097
2017-11-04T13:33:19.133Z,100097
2017-11-04T13:35:48.075Z,100094
2017-11-04T13:38:18.500Z,100092
2017-11-04T13:40:48.365Z,100090
2017-11-04T13:43:18.410Z,100084
2017-11-04T13:45:47.296Z,100089
2017-11-04T13:48:16.008Z,100077
2017-11-04T13:50:44.996Z,100077
2017-11-04T13:53:14.186Z,100078
2017-11-04T13:55:43.603Z,100083
2017-11-04T13:58:13.621Z,100079
2017-11-04T14:00:45.780Z,100078
2017-11-04T14:03:14.184Z,100075
2017-11-04T14:05:43.880Z,100074
2017-11-04T14:08:14.940Z,100066
2017-11-04T14:10:43.732Z,100079
2017-11-04T14:13:12.711Z,100078
2017-11-04T14:15:42.400Z,100073
2017-11-04T14:18:11.068Z,100060
2017-11-04T14:20:39.972Z,100063
2017-11-04T14:23:08.883Z,100056
2017-11-04T14:25:39.208Z,100052
2017-11-04T14:28:09.596Z,100053
2017-11-04T14:30:39.380Z,100054
2017-11-04T14:33:08.340Z,100052
2017-11-04T14:35:38.095Z,100053
2017-11-04T14:38:07.747Z,100048
2017-11-04T14:40:36.920Z,100042
2017-11-04T14:43:07.680Z,100052
2017-11-04T14:45:37.123Z,100053
2017-11-04T14:48:06.033Z,100046
2017-11-04T14:50:36.363Z,100044
2017-11-04T14:53:05.584Z,100042
2017-11-04T14:55:34.815Z,100037
2017-11-04T14:58:04.508Z,100036
2017-11-04T15:00:34.975Z,100020
2017-11-04T15:03:03.701Z,100031
2017-11-04T15:05:33.414Z,100015
2017-11-04T15:08:03.715Z,100024
2017-11-04T15:10:32.372Z,100021
2017-11-04T15:13:01.719Z,100022
2017-11-04T15:15:31.310Z,100027
2017-11-04T15:18:02.053Z,100021
2017-11-04T15:20:30.808Z,100012
2017-11-04T15:23:00.136Z,100008
2017-11-04T15:25:30.119Z,99999
2017-11-04T15:27:58.580Z,99996
2017-11-04T15:30:28.669Z,99991
2017-11-04T15:32:57.327Z,99976
2017-11-04T15:35:26.488Z,99981
2017-11-04T15:37:56.504Z,99991
2017-11-04T15:40:26.348Z,99988
2017-11-04T15:42:55.974Z,99983
2017-11-04T15:45:24.894Z,99979
2017-11-04T15:47:54.166Z,99954
2017-11-04T15:50:22.664Z,99952
2017-11-04T15:52:51.708Z,99952
2017-11-04T15:55:21.973Z,99957
2017-11-04T15:57:50.299Z,99961
2017-11-04T16:00:18.880Z,99959
2017-11-04T16:02:51.444Z,99958
2017-11-04T16:05:20.344Z,99954
2017-11-04T16:07:49.200Z,99955
2017-11-04T16:10:18.373Z,99947
2017-11-04T16:12:46.728Z,99940
2017-11-04T16:15:17.969Z,99939
2017-11-04T16:17:47.065Z,99936
2017-11-04T16:20:16.643Z,99926
2017-11-04T16:22:46.113Z,99923
2017-11-04T16:25:15.140Z,99935
2017-11-04T16:27:44.144Z,99931
2017-11-04T16:30:17.472Z,99940
2017-11-04T16:32:46.593Z,99934
2017-11-04T16:35:16.756Z,99932
2017-11-04T16:37:49.481Z,99934
2017-11-04T16:40:19.814Z,99937
2017-11-04T16:42:49.646Z,99938
2017-11-04T16:45:20.416Z,99949
2017-11-04T16:47:49.405Z,99960
2017-11-04T16:50:18.259Z,99950
2017-11-04T16:52:47.903Z,99952
2017-11-04T16:55:17.197Z,99961
2017-11-04T16:57:48.924Z,99955
2017-11-04T17:00:17.937Z,99956
2017-11-04T17:02:46.968Z,99944
2017-11-04T17:05:15.280Z,99944
2017-11-04T17:07:45.021Z,99949
2017-11-04T17:10:15.153Z,99945
2017-11-04T17:12:44.372Z,99928
2017-11-04T17:15:13.457Z,99916
2017-11-04T17:17:42.161Z,99918
2017-11-04T17:20:13.099Z,99916
2017-11-04T17:22:43.127Z,99919
2017-11-04T17:25:11.779Z,99919
2017-11-04T17:27:40.080Z,99914
2017-11-04T17:30:09.058Z,99915
2017-11-04T17:32:43.935Z,99924
2017-11-04T17:37:50.106Z,99913
2017-11-04T17:40:19.323Z,99914
2017-11-04T17:42:48.064Z,99921
2017-11-04T17:45:18.804Z,99916
2017-11-04T17:47:47.331Z,99903
2017-11-04T17:50:17.021Z,99898
2017-11-04T17:52:46.029Z,99894
2017-11-04T17:55:16.045Z,99902
2017-11-04T17:57:46.696Z,99897
2017-11-04T18:00:15.592Z,99900
2017-11-04T18:02:45.481Z,99892
2017-11-04T18:05:14.503Z,99879
2017-11-04T18:07:43.116Z,99886
2017-11-04T18:10:12.233Z,99888
2017-11-04T18:12:41.602Z,99881
2017-11-04T18:15:11.524Z,99874
2017-11-04T18:17:40.532Z,99882
2017-11-04T18:20:09.912Z,99871
2017-11-04T18:22:38.818Z,99877
2017-11-04T18:25:11.416Z,99877
2017-11-04T18:27:40.786Z,99865
2017-11-04T18:30:11.637Z,99869
2017-11-04T18:32:41.662Z,99858
2017-11-04T18:35:11.142Z,99859
2017-11-04T18:37:39.736Z,99864
2017-11-04T18:40:08.892Z,99874
2017-11-04T18:42:37.782Z,99862
2017-11-04T18:45:07.025Z,99865
2017-11-04T18:47:36.111Z,99864
2017-11-04T18:50:08.691Z,99851
2017-11-04T18:52:37.662Z,99853
2017-11-04T18:55:06.671Z,99854
2017-11-04T18:57:36.389Z,99852
2017-11-04T19:00:05.445Z,99853
2017-11-04T19:02:34.074Z,99851
2017-11-04T19:05:02.786Z,99845
2017-11-04T19:07:31.765Z,99840
2017-11-04T19:10:00.677Z,99843
2017-11-04T19:12:29.832Z,99840
2017-11-04T19:14:59.818Z,99841
2017-11-04T19:17:28.461Z,99842
2017-11-04T19:20:03.585Z,99841
2017-11-04T19:22:32.605Z,99836
2017-11-04T19:25:02.782Z,99836
2017-11-04T19:27:31.496Z,99834
2017-11-04T19:30:01.726Z,99842
2017-11-04T19:32:30.938Z,99835
2017-11-04T19:34:59.255Z,99834
2017-11-04T19:37:27.605Z,99838
2017-11-04T19:39:56.753Z,99829
2017-11-04T19:42:26.717Z,99822
2017-11-04T19:44:56.650Z,99822
2017-11-04T19:47:25.987Z,99827
2017-11-04T19:49:54.824Z,99826
2017-11-04T19:52:25.158Z,99827
2017-11-04T19:54:54.611Z,99825
2017-11-04T19:57:23.020Z,99818
2017-11-04T19:59:52.749Z,99822
2017-11-04T20:02:21.070Z,99823
2017-11-04T20:04:49.984Z,99826
2017-11-04T20:07:18.605Z,99826
2017-11-04T20:09:46.916Z,99819
2017-11-04T20:12:16.296Z,99820
2017-11-04T20:14:45.653Z,99821
2017-11-04T20:17:15.870Z,99812
2017-11-04T20:19:45.377Z,99812
2017-11-04T20:22:14.810Z,99801
2017-11-04T20:24:44.220Z,99798
2017-11-04T20:27:14.440Z,99804
2017-11-04T20:29:44.069Z,99795
2017-11-04T20:32:14.186Z,99794
2017-11-04T20:34:44.360Z,99796
2017-11-04T20:37:14.483Z,99790
2017-11-04T20:39:44.953Z,99792
2017-11-04T20:42:14.300Z,99796
2017-11-04T20:44:45.194Z,99789
2017-11-04T20:47:13.827Z,99784
2017-11-04T20:49:43.486Z,99787
2017-11-04T20:52:13.301Z,99788
2017-11-04T20:54:42.572Z,99770
2017-11-04T20:57:11.028Z,99778
2017-11-04T20:59:40.589Z,99776
2017-11-04T21:02:08.920Z,99771
2017-11-04T21:04:38.504Z,99767
2017-11-04T21:07:08.244Z,99760
2017-11-04T21:09:37.626Z,99766
2017-11-04T21:12:07.092Z,99765
2017-11-04T21:14:35.757Z,99769
2017-11-04T21:17:05.293Z,99769
2017-11-04T21:19:34.401Z,99759
2017-11-04T21:22:04.452Z,99764
2017-11-04T21:24:34.417Z,99750
2017-11-04T21:27:02.911Z,99749
2017-11-04T21:29:33.311Z,99753
2017-11-04T21:32:02.897Z,99757
2017-11-04T21:34:31.945Z,99757
2017-11-04T21:37:02.404Z,99755
2017-11-04T21:39:32.624Z,99742
2017-11-04T21:42:04.672Z,99744
2017-11-04T21:44:33.381Z,99748
2017-11-04T21:47:03.221Z,99736
2017-11-04T21:49:31.728Z,99737
2017-11-04T21:52:02.097Z,99745
2017-11-04T21:54:31.536Z,99754
2017-11-04T21:57:00.626Z,99753
2017-11-04T21:59:34.720Z,99751
2017-11-04T22:02:04.499Z,99753
2017-11-04T22:04:33.328Z,99750
2017-11-04T22:07:02.472Z,99752
2017-11-04T22:09:32.016Z,99746
2017-11-04T22:12:01.664Z,99754
2017-11-04T22:14:32.581Z,99752
2017-11-04T22:17:02.095Z,99752
2017-11-04T22:19:32.969Z,99745
2017-11-04T22:22:02.474Z,99749
2017-11-04T22:24:31.842Z,99752
2017-11-04T22:27:01.074Z,99758
2017-11-04T22:29:29.652Z,99753
2017-11-04T22:31:58.040Z,99756
2017-11-04T22:34:27.280Z,99750
2017-11-04T22:36:56.764Z,99752
2017-11-04T22:39:27.179Z,99761
2017-11-04T22:41:55.776Z,99754
2017-11-04T22:44:30.727Z,99767
2017-11-04T22:47:00.486Z,99759
2017-11-04T22:49:32.703Z,99769
2017-11-04T22:52:01.604Z,99768
2017-11-04T22:54:31.624Z,99761
2017-11-04T22:57:00.685Z,99766
2017-11-04T22:59:30.812Z,99755
2017-11-04T23:02:04.272Z,99762
2017-11-04T23:04:32.591Z,99753
2017-11-04T23:07:03.416Z,99754
2017-11-04T23:09:32.275Z,99758
2017-11-04T23:12:00.736Z,99750
2017-11-04T23:14:32.820Z,99745
2017-11-04T23:17:01.370Z,99752
2017-11-04T23:19:31.056Z,99749
2017-11-04T23:22:03.026Z,99751
2017-11-04T23:24:31.552Z,99750
2017-11-04T23:27:00.366Z,99758
2017-11-04T23:29:29.844Z,99747
2017-11-04T23:31:58.500Z,99756
2017-11-04T23:34:27.539Z,99757
2017-11-04T23:36:57.543Z,99755
2017-11-04T23:39:26.763Z,99754
2017-11-04T23:41:56.068Z,99754
2017-11-04T23:44:26.464Z,99761
2017-11-04T23:46:54.797Z,99766
2017-11-04T23:49:23.169Z,99757
2017-11-04T23:51:52.240Z,99763
2017-11-04T23:54:22.900Z,99761
2017-11-04T23:56:53.144Z,99761
2017-11-04T23:59:23.188Z,99766
